Arcola, Texas
Current Conditions -  °F | °C
As of 1:35 PM on Wednesday 17 Dec 2014 (Local Time) from KAXH Reporting Station
Overcast Overcast  
Wind Chill: 63°   Ceiling: 10000
Heat Index: 63°   Visibility: 10mi
Dew Point: 53°   Wind: 8mph
Humidity: 71%   Direction: 90°E
Pressure: 30.12"   Gusts: NA
Location:  29.4042°N, 95.4477°W
Report Text: KAXH 171935Z AUTO 09007KT 10SM SCT027 OVC100 17/12 A3012 RMK AO2 T01720119
Loading
Personal Weather Stations






























Interactive Weather Map New forecast layout! Learn more

10-Day Weather Forecast

Advertisements
Track Severe Weather on mobile